Flight Track Log - Related Links

Times and Time Zones

All times are in EST time to prevent confusion due to time zone crossing. See the EJA929 flight status page for this flight to view local times or setup timezone preferences in your user account.

Time Position Orientation Groundspeed Altitude Reporting Facility
EST Latitude Longitude Course Direction KTS MPH feet Rate Location/Type
Thu 06:20:51 PM 33.5892 -83.6922 275° West 375 432 35,200  Level Atlanta Center
Thu 06:21:51 PM 33.5978 -83.8119 275° West 388 447 36,000 400 Climbing Atlanta Center
Thu 06:22:51 PM 33.6042 -83.9564 273° West 421 484 36,000  Level Atlanta Center
Thu 06:23:51 PM 33.6106 -84.1086 273° West 456 525 36,000  Level Atlanta Center
Thu 06:24:51 PM 33.6208 -84.2658 275° West 470 541 36,000  Level Atlanta Center
Thu 06:25:51 PM 33.6244 -84.4256 272° West 476 548 36,000 750 Level Atlanta Center
Thu 06:26:51 PM 33.6322 -84.5803 273° West 476 548 37,500 1,850 Climbing Atlanta Center
Thu 06:27:51 PM 33.6358 -84.7225 272° West 458 527 39,700 1,550 Climbing Atlanta Center
Thu 06:28:51 PM 33.6389 -84.8847 271° West 446 513 40,600 1,150 Climbing Atlanta Center
Thu 06:29:51 PM 33.6422 -85.0219 272° West 424 488 42,000 1,150 Climbing Atlanta Center
Thu 06:30:51 PM 33.6472 -85.1567 273° West 413 475 42,900 500 Climbing Atlanta Center
Thu 06:31:51 PM 33.6503 -85.2817 272° West 407 468 43,000 50 Climbing Atlanta Center
Thu 06:32:51 PM 33.6614 -85.4189 276° West 412 474 43,000  Level Atlanta Center
Thu 06:33:51 PM 33.7078 -85.5544 292° West 418 481 43,000  Level Atlanta Center
Thu 06:34:51 PM 33.7561 -85.6878 294° West 430 495 43,000  Level Atlanta Center
Thu 06:35:51 PM 33.8064 -85.8314 293° West 432 497 43,000  Level Atlanta Center
Thu 06:36:51 PM 33.8542 -85.9700 293° West 432 497 43,000  Level Atlanta Center
Thu 06:37:51 PM 33.9022 -86.1061 293° West 439 505 43,000  Level Atlanta Center
Thu 06:38:51 PM 33.9500 -86.2425 293° West 439 505 43,000  Level Atlanta Center
Thu 06:39:51 PM 33.9975 -86.3792 293° West 439 505 43,000  Level Atlanta Center
Thu 06:40:51 PM 34.0469 -86.5183 293° West 439 505 43,000  Level Atlanta Center
Thu 06:41:51 PM 34.0922 -86.6500 293° West 439 505 43,000  Level Atlanta Center
Thu 06:42:40 PM 34.1317 -86.7656 292° West 443 510 43,000  Level Memphis Center
Thu 06:43:42 PM 34.1792 -86.9028 293° West 444 511 43,000  Level Memphis Center
Thu 06:44:43 PM 34.2253 -87.0403 292° West 442 509 43,000  Level Memphis Center
Thu 06:45:45 PM 34.2717 -87.1767 292° West 441 507 43,000  Level Memphis Center
Thu 06:46:47 PM 34.3181 -87.3128 292° West 440 506 43,000  Level Memphis Center
Thu 06:47:48 PM 34.3703 -87.4664 292° West 438 504 43,000  Level Memphis Center
Thu 06:48:50 PM 34.4211 -87.6058 294° West 441 507 43,000  Level Memphis Center
Thu 06:49:52 PM 34.4689 -87.7361 294° West 445 512 43,000  Level Memphis Center
Thu 06:50:53 PM 34.5181 -87.8725 294° West 443 510 43,000  Level Memphis Center
Thu 06:51:55 PM 34.5672 -88.0094 294° West 444 511 43,000  Level Memphis Center
Thu 06:52:57 PM 34.6261 -88.1756 293° West 446 513 43,000  Level Memphis Center
Thu 06:53:58 PM 34.6756 -88.3139 294° West 447 514 43,000  Level Memphis Center
Thu 06:55:00 PM 34.7242 -88.4525 293° West 446 513 43,000  Level Memphis Center
Thu 06:56:02 PM 34.7736 -88.5911 294° West 446 513 43,000  Level Memphis Center
Thu 06:57:03 PM 34.8217 -88.7292 293° West 445 512 43,000  Level Memphis Center
Thu 06:58:05 PM 34.8700 -88.8672 293° West 445 512 43,000  Level Memphis Center
Thu 06:59:07 PM 34.9169 -89.0039 293° West 441 507 43,000  Level Memphis Center
Thu 07:00:08 PM 34.9719 -89.1619 293° West 434 499 43,000  Level Memphis Center
Thu 07:01:10 PM 35.0200 -89.2997 293° West 437 503 43,000  Level Memphis Center
Thu 07:02:12 PM 35.0675 -89.4392 293° West 441 507 43,000  Level Memphis Center
Thu 07:03:13 PM 35.1147 -89.5786 293° West 443 510 43,000  Level Memphis Center
Thu 07:04:15 PM 35.1622 -89.7175 293° West 443 510 43,000  Level Memphis Center
Thu 07:05:16 PM 35.2083 -89.8561 292° West 442 509 43,000  Level Memphis Center
Thu 07:06:18 PM 35.2550 -89.9947 292° West 440 506 43,000  Level Memphis Center
Thu 07:07:20 PM 35.3022 -90.1350 292° West 443 510 43,000  Level Memphis Center
Thu 07:08:21 PM 35.3497 -90.2769 292° West 448 516 43,000  Level Memphis Center
Thu 07:09:23 PM 35.4069 -90.4469 292° West 447 514 43,000  Level Memphis Center
Thu 07:10:24 PM 35.4533 -90.5869 292° West 445 512 43,000  Level Memphis Center
Thu 07:11:26 PM 35.4975 -90.7269 291° West 441 507 43,000  Level Memphis Center
Thu 07:12:27 PM 35.5436 -90.8675 292° West 442 509 43,000  Level Memphis Center
Thu 07:13:29 PM 35.5903 -91.0106 292° West 448 516 43,000  Level Memphis Center
Thu 07:14:31 PM 35.6414 -91.1661 292° West 451 519 43,000  Level Memphis Center
Thu 07:15:32 PM 35.6878 -91.3081 292° West 451 519 43,000  Level Memphis Center
Thu 07:16:34 PM 35.7322 -91.4494 291° West 448 516 43,000  Level Memphis Center
Thu 07:17:35 PM 35.7775 -91.5906 292° West 445 512 43,000  Level Memphis Center
Thu 07:18:37 PM 35.8208 -91.7317 291° West 445 512 43,000  Level Memphis Center
Thu 07:19:39 PM 35.8667 -91.8767 291° West 451 519 43,000  Level Memphis Center
Thu 07:20:40 PM 35.9219 -92.0500 292° West 455 524 43,000  Level Memphis Center
Thu 07:21:42 PM 35.9664 -92.1947 291° West 454 522 43,000  Level Memphis Center
Thu 07:22:43 PM 36.0119 -92.3411 291° West 457 526 43,000  Level Memphis Center
Thu 07:23:45 PM 36.0558 -92.4850 291° West 455 524 43,000  Level Memphis Center
Thu 07:24:47 PM 36.1006 -92.6275 291° West 451 519 43,000  Level Memphis Center
Thu 07:25:48 PM 36.1442 -92.7719 291° West 450 518 43,000  Level Memphis Center
Thu 07:26:50 PM 36.1972 -92.9450 291° West 452 520 43,000  Level Memphis Center
Thu 07:27:51 PM 36.2422 -93.0925 291° West 455 524 43,000  Level Memphis Center
Thu 07:28:53 PM 36.2856 -93.2428 290° West 462 532 43,000  Level Memphis Center
Thu 07:29:54 PM 36.3311 -93.3931 291° West 467 537 43,000  Level Memphis Center
Thu 07:30:56 PM 36.3761 -93.5447 290° West 470 541 43,000  Level Memphis Center
Thu 07:31:51 PM 36.4231 -93.6956 291° West 471 542 43,000  Level Kansas City Center
Thu 07:32:55 PM 36.4661 -93.8419 290° West 471 542 43,000  Level Kansas City Center
Thu 07:33:56 PM 36.5122 -93.9964 290° West 474 545 43,000  Level Kansas City Center
Thu 07:34:58 PM 36.5553 -94.1478 290° West 472 543 43,000  Level Kansas City Center
Thu 07:35:59 PM 36.6083 -94.3281 290° West 467 537 43,000  Level Kansas City Center
Thu 07:37:02 PM 36.6514 -94.4797 290° West 467 537 43,000  Level Kansas City Center
Thu 07:38:03 PM 36.6956 -94.6344 290° West 468 539 43,000  Level Kansas City Center
Thu 07:39:07 PM 36.7389 -94.7864 290° West 468 539 43,000  Level Kansas City Center
Thu 07:40:09 PM 36.7806 -94.9383 289° West 468 539 43,000  Level Kansas City Center
Thu 07:41:09 PM 36.8236 -95.0889 290° West 466 536 43,000  Level Kansas City Center
Thu 07:42:10 PM 36.8733 -95.2661 289° West 459 528 43,000  Level Kansas City Center
Thu 07:43:13 PM 36.9139 -95.4167 289° West 459 528 43,000  Level Kansas City Center
Thu 07:44:15 PM 36.9553 -95.5678 289° West 459 528 43,000  Level Kansas City Center
Thu 07:45:15 PM 36.9975 -95.7192 289° West 460 529 43,000  Level Kansas City Center
Thu 07:46:19 PM 37.0381 -95.8697 289° West 460 529 43,000  Level Kansas City Center
Thu 07:47:21 PM 37.0786 -96.0228 288° West 461 531 43,000  Level Kansas City Center
Thu 07:49:23 PM 37.1686 -96.3572 291° West 461 531 43,000  Level Kansas City Center
Thu 07:51:29 PM 37.2472 -96.6447 289° West 461 531 43,000  Level Kansas City Center
Thu 07:52:30 PM 37.2961 -96.8278 289° West 462 532 43,000  Level Kansas City Center
Thu 07:53:32 PM 37.3361 -96.9811 288° West 461 531 43,000  Level Kansas City Center
Thu 07:54:33 PM 37.3769 -97.1344 289° West 462 532 43,000  Level Kansas City Center
Thu 07:55:34 PM 37.4175 -97.2925 288° West 473 544 43,000  Level Kansas City Center
Thu 07:56:37 PM 37.4575 -97.4475 288° West 472 543 43,000  Level Kansas City Center
Thu 07:57:38 PM 37.4967 -97.6036 288° West 471 542 43,000  Level Kansas City Center
Thu 07:58:42 PM 37.5372 -97.7611 288° West 471 542 43,000  Level Kansas City Center
Thu 07:59:43 PM 37.5833 -97.9497 287° West 469 540 43,000  Level Kansas City Center
Thu 08:00:46 PM 37.6233 -98.1069 288° West 469 540 43,000  Level Kansas City Center
Thu 08:01:48 PM 37.6633 -98.2644 288° West 469 540 43,000  Level Kansas City Center
Thu 08:02:48 PM 37.7022 -98.4192 288° West 466 536 43,000  Level Kansas City Center
Thu 08:03:49 PM 37.7381 -98.5744 286° West 463 533 43,000  Level Kansas City Center
Thu 08:04:54 PM 37.7744 -98.7278 287° West 458 527 43,000  Level Kansas City Center
Thu 08:05:55 PM 37.8128 -98.8800 288° West 458 527 43,000  Level Kansas City Center
Thu 08:06:56 PM 37.8497 -99.0331 287° West 457 526 43,000  Level Kansas City Center
Thu 08:07:58 PM 37.8942 -99.2167 287° West 456 525 43,000  Level Kansas City Center
Thu 08:08:59 PM 37.9314 -99.3697 287° West 456 525 43,000  Level Kansas City Center
Thu 08:10:03 PM 37.9711 -99.5372 287° West 456 525 43,000  Level Kansas City Center
Thu 08:11:04 PM 38.0058 -99.6836 287° West 455 524 43,000  Level Kansas City Center
Thu 08:12:07 PM 38.0447 -99.8522 286° West 453 521 43,000  Level Kansas City Center
Thu 08:13:08 PM 38.0789 -99.9981 287° West 453 521 43,000  Level Kansas City Center
Thu 08:14:09 PM 38.1117 -100.1447 286° West 453 521 43,000  Level Kansas City Center
Thu 08:15:13 PM 38.1511 -100.3172 286° West 454 522 43,000  Level Kansas City Center
Thu 08:16:13 PM 38.1844 -100.4639 286° West 454 522 43,000  Level Kansas City Center
Thu 08:17:15 PM 38.2219 -100.6353 286° West 454 522 43,000  Level Kansas City Center
Thu 08:18:18 PM 38.2547 -100.7822 286° West 454 522 43,000  Level Kansas City Center
Thu 08:19:19 PM 38.2936 -100.9558 286° West 454 522 43,000  Level Kansas City Center
Thu 08:20:20 PM 38.3258 -101.1058 285° West 457 526 43,000  Level Kansas City Center
Thu 08:21:10 PM 38.3597 -101.2553 286° West 465 535 43,000  Level Denver Center
Thu 08:22:12 PM 38.3928 -101.4081 285° West 469 540 43,000  Level Denver Center
Thu 08:23:14 PM 38.4314 -101.5853 286° West 466 536 43,000  Level Denver Center
Thu 08:24:16 PM 38.4786 -101.7325 292° West 469 540 43,000  Level Denver Center
Thu 08:25:18 PM 38.5514 -101.8983 299° West 479 551 43,000  Level Denver Center
Thu 08:26:20 PM 38.6142 -102.0406 299° West 480 552 43,000  Level Denver Center
Thu 08:27:21 PM 38.6650 -102.1597 299° West 480 552 43,000  Level Denver Center
Thu 08:28:24 PM 38.7475 -102.3506 299° West 478 550 43,000  Level Denver Center
Thu 08:29:25 PM 38.8078 -102.4933 298° West 476 548 43,000 -244 Level Denver Center
Thu 08:30:27 PM 38.8786 -102.6581 299° West 474 545 42,500 -1,065 Descending Denver Center
Thu 08:31:29 PM 38.9408 -102.8036 299° West 444 511 40,800 -1,742 Descending Denver Center
Thu 08:32:31 PM 39.0000 -102.9447 298° West 449 517 38,900 -1,790 Descending Denver Center
Thu 08:33:33 PM 39.0628 -103.0925 299° West 467 537 37,100 -1,742 Descending Denver Center
Thu 08:34:35 PM 39.1239 -103.2389 298° West 467 537 35,300 -1,500 Descending Denver Center
Thu 08:35:37 PM 39.1778 -103.3672 298° West 416 479 34,000 -629 Descending Denver Center
Thu 08:36:39 PM 39.2442 -103.5269 298° West 420 483 34,000  Level Denver Center
Thu 08:37:41 PM 39.3011 -103.6631 298° West 429 494 34,000  Level Denver Center
Thu 08:38:43 PM 39.3556 -103.7950 298° West 420 483 34,000  Level Denver Center
Thu 08:39:45 PM 39.4108 -103.9308 298° West 428 493 34,000  Level Denver Center
Thu 08:40:46 PM 39.4667 -104.0681 298° West 433 498 34,000  Level Denver Center
Thu 08:42:00 PM 39.5222 -104.2042 298° West 431 496 34,000 -350 Level Denver Center
Thu 08:43:03 PM 39.5978 -104.3928 298° West 424 488 33,200 -1,296 Descending Denver Center
Thu 08:44:05 PM 39.6494 -104.5233 297° West 416 479 31,300 -1,561 Descending Denver Center
Thu 08:45:06 PM 39.6853 -104.6575 289° West 421 484 30,000 -634 Descending Denver Center
Thu 08:46:08 PM 39.6717 -104.8019 263° West 419 482 30,000  Level Denver Center
Thu 08:47:10 PM 39.6522 -104.9856 262° West 433 498 30,000  Level Denver Center
Thu 08:48:12 PM 39.6358 -105.1461 262° West 450 518 30,000 -48 Level Denver Center
Thu 08:49:14 PM 39.6186 -105.3056 262° West 448 516 29,900 -532 Descending Denver Center
Thu 08:50:16 PM 39.6017 -105.4697 262° West 459 528 28,900 -1,016 Descending Denver Center
Thu 08:51:18 PM 39.5842 -105.6328 262° West 459 528 27,800 -1,073 Descending Denver Center
Thu 08:52:19 PM 39.5656 -105.7933 261° West 455 524 26,700 -1,220 Descending Denver Center
Thu 08:53:21 PM 39.5469 -105.9719 262° West 417 480 25,300 -1,210 Descending Denver Center
Thu 08:54:23 PM 39.5303 -106.1139 261° West 400 460 24,200 -1,258 Descending Denver Center
Thu 08:55:25 PM 39.5144 -106.2561 262° West 391 450 22,700 -1,452 Descending Denver Center
Thu 08:56:27 PM 39.4981 -106.3942 261° West 389 448 21,200 -1,317 Descending Denver Center
Thu 08:57:28 PM 39.4811 -106.5406 262° West 384 442 20,000 -585 Descending Denver Center
Thu 08:58:30 PM 39.4653 -106.6744 261° West 391 450 20,000 -1,597 Level Denver Center
Thu 08:59:32 PM 39.4464 -106.8325 261° West 397 457 16,700 -1,951 Descending Denver Center
Thu 09:00:33 PM 39.4500 -106.9494 272° West 343 395 16,000 -927 Descending Denver Center
Thu 09:01:35 PM 39.4789 -107.0553 290° West 303 349 14,800 -1,306 Descending Denver Center
Thu 09:02:37 PM 39.5017 -107.1489 288° West 269 310 13,300 -871 Descending Denver Center
Thu 09:03:39 PM 39.5214 -107.2342 287° West 255 293 13,000 -195 Descending Denver Center
Thu 09:04:40 PM 39.5358 -107.3183 283° West 219 252 12,900 -537 Descending Denver Center
Thu 09:05:42 PM 39.5333 -107.3800 267° West 186 214 11,900 -1,065 Descending Denver Center
Thu 09:06:44 PM 39.5314 -107.4492 268° West 175 201 10,700 -1,171 Descending Denver Center
Thu 09:07:45 PM 39.5300 -107.5083 268° West 168 193 9,500 -1,122 Descending Denver Center
Thu 09:08:47 PM 39.5289 -107.5681 269° West 167 192 8,400 -1,016 Descending Denver Center
Thu 09:09:49 PM 39.5286 -107.6222 270° West 161 185 7,400 -919 Descending Denver Center
Thu 09:10:51 PM 39.5278 -107.6711 269° West 150 173 6,500 -927 Descending Denver Center
Thu 09:11:52 PM 39.5261 -107.7203 267° West 143 165 5,500 -984 Descending Denver Center

Login

Don't have an account? Register now (free) for customized features, flight alerts, and more!